Time;durP1;ratioP1;P1;durP2;ratioP2;P2;SDS_P1;SDS_P2;PMS_P1;PMS_P2;Temp;Humidity;BMP_temperature;BMP_pressure;BME280_temperature;BME280_humidity;BME280_pressure;Samples;Min_cycle;Max_cycle;Signal;HPM_P1;HPM_P2
2022/04/04 00:00:37;;;;;;;14.98;9.70;;;;;;;-1.18;69.23;97810.48;1755263;81;21084;-79
2022/04/04 00:03:05;;;;;;;14.15;9.58;;;;;;;-1.15;69.55;97810.53;1754957;82;21422;-79
2022/04/04 00:05:32;;;;;;;18.20;10.00;;;;;;;-1.12;69.30;97811.86;1754889;82;21048;-79
2022/04/04 00:07:59;;;;;;;17.48;10.20;;;;;;;-1.11;69.29;97807.54;1755042;82;21422;-79
2022/04/04 00:10:25;;;;;;;17.73;9.85;;;;;;;-1.08;69.35;97818.86;1755191;81;21000;-79
2022/04/04 00:12:52;;;;;;;17.35;10.10;;;;;;;-1.04;69.32;97818.91;1755047;82;21051;-79
2022/04/04 00:15:18;;;;;;;14.58;9.65;;;;;;;-1.00;69.58;97823.30;1755154;82;21023;-79
2022/04/04 00:17:45;;;;;;;19.35;10.90;;;;;;;-0.92;69.48;97820.36;1755150;82;21028;-79
2022/04/04 00:20:12;;;;;;;16.27;10.88;;;;;;;-0.91;69.40;97818.64;1755258;82;21000;-79
2022/04/04 00:22:41;;;;;;;16.52;10.13;;;;;;;-0.87;69.58;97817.39;1750319;82;21012;-79
2022/04/04 00:25:09;;;;;;;18.07;9.95;;;;;;;-0.81;69.55;97821.40;1755299;82;21032;-79
2022/04/04 00:27:35;;;;;;;16.97;9.88;;;;;;;-0.80;69.47;97824.86;1761654;81;20972;-79
2022/04/04 00:30:04;;;;;;;18.48;9.70;;;;;;;-0.78;69.42;97827.07;1764185;81;21012;-79
2022/04/04 00:32:31;;;;;;;14.53;9.68;;;;;;;-0.76;69.42;97820.14;1764436;81;21023;-79
2022/04/04 00:35:00;;;;;;;14.15;9.33;;;;;;;-0.73;69.65;97828.42;1764233;81;21500;-79
2022/04/04 00:37:26;;;;;;;14.70;9.20;;;;;;;-0.68;69.51;97828.05;1763609;81;21529;-79
2022/04/04 00:39:53;;;;;;;16.02;9.75;;;;;;;-0.68;69.48;97826.74;1763635;81;21016;-79
2022/04/04 00:42:19;;;;;;;16.70;9.63;;;;;;;-0.72;69.32;97827.55;1764091;81;21408;-79
2022/04/04 00:44:46;;;;;;;16.90;9.83;;;;;;;-0.74;69.35;97827.56;1764413;81;21004;-79
2022/04/04 00:47:13;;;;;;;18.20;9.68;;;;;;;-0.73;69.51;97820.20;1764146;81;20961;-79
2022/04/04 00:49:40;;;;;;;16.35;9.63;;;;;;;-0.72;69.62;97827.55;1764118;81;22033;-79
2022/04/04 00:52:07;;;;;;;15.38;9.38;;;;;;;-0.69;69.33;97818.50;1763920;81;21043;-79
2022/04/04 00:54:34;;;;;;;16.50;9.50;;;;;;;-0.69;69.21;97814.17;1764182;81;20945;-79
2022/04/04 00:57:04;;;;;;;12.90;8.38;;;;;;;-0.67;69.35;97811.57;1764162;81;21043;-79
2022/04/04 00:59:31;;;;;;;16.02;9.25;;;;;;;-0.62;69.11;97809.04;1764384;81;21046;-79
2022/04/04 01:01:58;;;;;;;13.72;9.18;;;;;;;-0.62;69.12;97809.04;1763932;81;21008;-79
2022/04/04 01:04:25;;;;;;;13.88;8.73;;;;;;;-0.64;69.20;97802.92;1763977;81;21011;-79
2022/04/04 01:06:54;;;;;;;16.05;8.88;;;;;;;-0.61;69.21;97803.86;1764290;81;20960;-79
2022/04/04 01:09:20;;;;;;;16.62;8.90;;;;;;;-0.61;69.08;97802.56;1764205;81;21024;-79
2022/04/04 01:12:11;;;;;;;15.58;9.30;;;;;;;-0.61;68.99;97809.06;1764039;81;21004;-79
2022/04/04 01:14:46;;;;;;;12.55;8.53;;;;;;;-0.60;69.08;97806.90;1764057;81;21048;-79
2022/04/04 01:17:14;;;;;;;14.15;8.78;;;;;;;-0.59;69.18;97808.64;1764119;81;21077;-79
2022/04/04 01:19:41;;;;;;;13.72;8.30;;;;;;;-0.60;68.90;97796.91;1764176;81;21031;-79
2022/04/04 01:22:12;;;;;;;11.70;7.75;;;;;;;-0.63;68.99;97797.73;1763958;81;21441;-79
2022/04/04 01:24:40;;;;;;;12.50;8.80;;;;;;;-0.63;69.19;97792.98;1764218;81;20996;-79
2022/04/04 01:27:09;;;;;;;12.53;7.70;;;;;;;-0.58;69.25;97790.86;1760686;81;21052;-79
2022/04/04 01:29:36;;;;;;;13.95;8.08;;;;;;;-0.54;68.90;97791.34;1755226;82;21079;-79
2022/04/04 01:32:06;;;;;;;10.85;7.60;;;;;;;-0.51;68.61;97792.25;1755191;82;20981;-79
2022/04/04 01:34:34;;;;;;;12.03;7.85;;;;;;;-0.47;68.67;97786.20;1755273;81;21464;-79
2022/04/04 01:37:01;;;;;;;12.73;7.78;;;;;;;-0.46;68.49;97795.33;1755077;82;21043;-79
2022/04/04 01:39:27;;;;;;;14.78;8.90;;;;;;;-0.45;68.43;97803.58;1754976;82;21004;-79
2022/04/04 01:41:54;;;;;;;14.53;8.83;;;;;;;-0.43;68.06;97803.19;1755314;82;20949;-79
2022/04/04 01:44:21;;;;;;;17.75;9.05;;;;;;;-0.44;68.23;97797.55;1755240;82;21067;-79
2022/04/04 01:46:47;;;;;;;13.68;8.58;;;;;;;-0.41;68.35;97805.37;1755454;82;21397;-79
2022/04/04 01:49:14;;;;;;;14.47;8.90;;;;;;;-0.40;68.13;97811.02;1755156;82;21008;-79
2022/04/04 01:51:41;;;;;;;15.63;9.63;;;;;;;-0.38;68.52;97807.58;1755318;82;21047;-79
2022/04/04 01:54:09;;;;;;;13.68;8.93;;;;;;;-0.36;68.30;97810.65;1755362;82;20980;-79
2022/04/04 01:56:36;;;;;;;15.72;9.20;;;;;;;-0.38;68.21;97806.28;1755411;82;21070;-79
2022/04/04 01:59:03;;;;;;;16.45;9.65;;;;;;;-0.44;68.18;97812.28;1754947;82;21052;-78
2022/04/04 02:01:32;;;;;;;15.20;9.73;;;;;;;-0.47;68.37;97804.01;1755258;82;21402;-78
2022/04/04 02:03:58;;;;;;;15.15;8.95;;;;;;;-0.50;68.53;97811.77;1755220;82;21001;-78
2022/04/04 02:06:24;;;;;;;15.68;9.73;;;;;;;-0.52;68.57;97810.89;1755275;82;21037;-79
2022/04/04 02:08:52;;;;;;;15.53;9.38;;;;;;;-0.50;68.68;97811.77;1755379;82;21011;-79
2022/04/04 02:11:20;;;;;;;12.75;8.60;;;;;;;-0.54;68.60;97813.47;1755165;82;21040;-78
2022/04/04 02:13:47;;;;;;;18.23;9.70;;;;;;;-0.54;68.82;97811.32;1755305;82;21457;-79
2022/04/04 02:16:14;;;;;;;17.50;9.60;;;;;;;-0.51;68.83;97810.48;1755352;82;21004;-78
2022/04/04 02:18:40;;;;;;;21.85;11.03;;;;;;;-0.50;68.99;97810.92;1755531;82;20985;-78
2022/04/04 02:21:08;;;;;;;19.15;10.23;;;;;;;-0.48;69.03;97810.08;1755504;82;21110;-79
2022/04/04 02:23:35;;;;;;;16.25;10.43;;;;;;;-0.48;69.02;97813.98;1755364;82;20981;-78
2022/04/04 02:26:01;;;;;;;13.48;8.83;;;;;;;-0.53;69.08;97814.36;1755242;82;21040;-78
2022/04/04 02:28:29;;;;;;;14.70;8.98;;;;;;;-0.52;69.07;97817.81;1762676;81;20992;-79
2022/04/04 02:30:57;;;;;;;18.00;8.68;;;;;;;-0.55;68.96;97810.43;1764078;81;21094;-78
2022/04/04 02:33:25;;;;;;;15.03;9.58;;;;;;;-0.55;69.08;97812.14;1764215;81;21035;-79
2022/04/04 02:35:53;;;;;;;15.32;9.03;;;;;;;-0.56;69.01;97805.20;1764171;81;21043;-79
2022/04/04 02:38:24;;;;;;;15.55;8.75;;;;;;;-0.57;69.20;97804.34;1764200;81;21416;-79
2022/04/04 02:40:53;;;;;;;18.95;9.38;;;;;;;-0.57;69.30;97802.16;1764006;81;21488;-79
2022/04/04 02:43:21;;;;;;;14.90;9.93;;;;;;;-0.58;69.22;97803.02;1763599;81;21031;-79
2022/04/04 02:45:47;;;;;;;13.93;9.00;;;;;;;-0.58;69.24;97802.58;1763899;81;21019;-79
2022/04/04 02:48:15;;;;;;;17.82;9.55;;;;;;;-0.58;69.28;97801.72;1763876;81;21361;-79
2022/04/04 02:50:43;;;;;;;16.40;9.28;;;;;;;-0.56;69.32;97809.11;1738060;81;21046;-79
2022/04/04 02:53:10;;;;;;;16.25;9.70;;;;;;;-0.56;69.38;97810.41;1763893;81;21031;-79
2022/04/04 02:58:22;;;;;;;14.03;9.53;;;;;;;-0.49;69.41;97809.64;1764201;81;21373;-80
2022/04/04 03:00:49;;;;;;;15.40;9.10;;;;;;;-0.47;69.28;97813.53;1763985;81;20949;-80
2022/04/04 03:03:16;;;;;;;16.20;9.60;;;;;;;-0.47;69.20;97804.01;1764242;81;21008;-79
2022/04/04 03:05:43;;;;;;;15.40;8.85;;;;;;;-0.49;69.35;97811.36;1764200;81;20977;-80
2022/04/04 03:08:10;;;;;;;14.95;9.50;;;;;;;-0.52;69.45;97809.59;1764136;81;21349;-80
2022/04/04 03:10:38;;;;;;;18.23;10.60;;;;;;;-0.49;69.54;97808.75;1764134;81;21024;-80
2022/04/04 03:13:05;;;;;;;15.78;9.53;;;;;;;-0.49;69.52;97809.64;1764242;81;21026;-80
2022/04/04 03:15:35;;;;;;;14.18;9.23;;;;;;;-0.54;69.17;97808.27;1764062;81;21012;-80
2022/04/04 03:18:05;;;;;;;14.60;9.20;;;;;;;-0.53;69.09;97811.75;1764161;81;21047;-80
2022/04/04 03:20:32;;;;;;;13.83;9.40;;;;;;;-0.51;69.30;97794.86;1764318;81;21012;-80
2022/04/04 03:23:00;;;;;;;14.95;10.03;;;;;;;-0.50;69.24;97804.41;1764173;81;20969;-79
2022/04/04 03:25:28;;;;;;;15.65;9.18;;;;;;;-0.47;69.46;97796.61;1764375;81;21000;-80
2022/04/04 03:27:55;;;;;;;17.02;9.83;;;;;;;-0.43;69.60;97803.19;1759806;81;21008;-80
2022/04/04 03:30:26;;;;;;;15.28;9.63;;;;;;;-0.38;69.44;97803.67;1755885;81;21040;-80
2022/04/04 03:32:57;;;;;;;14.70;9.20;;;;;;;-0.37;69.45;97802.81;1755336;82;21071;-79
2022/04/04 03:35:29;;;;;;;14.85;9.73;;;;;;;-0.35;69.56;97804.58;1755589;82;21099;-80
2022/04/04 03:37:59;;;;;;;14.07;9.08;;;;;;;-0.33;69.35;97804.15;1755819;81;21664;-80
2022/04/04 03:40:27;;;;;;;16.62;8.75;;;;;;;-0.35;69.43;97807.19;1755264;82;21448;-80
2022/04/04 03:42:56;;;;;;;15.35;9.00;;;;;;;-0.32;69.43;97809.83;1754773;82;21521;-80
2022/04/04 03:45:24;;;;;;;14.23;8.18;;;;;;;-0.28;69.29;97802.92;1755859;82;21012;-80
2022/04/04 03:47:52;;;;;;;14.30;8.43;;;;;;;-0.26;69.29;97807.70;1755426;82;21473;-80
2022/04/04 03:50:20;;;;;;;13.08;8.65;;;;;;;-0.24;68.89;97806.42;1755408;82;21009;-80
2022/04/04 03:52:52;;;;;;;15.15;8.30;;;;;;;-0.22;68.99;97815.11;1755255;81;21330;-80
2022/04/04 03:55:27;;;;;;;14.85;9.68;;;;;;;-0.23;69.12;97810.77;1754496;81;21402;-80
2022/04/04 03:57:54;;;;;;;18.12;8.80;;;;;;;-0.23;69.14;97814.67;1753137;82;20989;-80
2022/04/04 04:00:22;;;;;;;20.55;8.73;;;;;;;-0.20;69.17;97817.32;1754633;82;21529;-79
2022/04/04 04:02:51;;;;;;;16.00;9.10;;;;;;;-0.24;69.15;97816.42;1754952;82;21000;-80
2022/04/04 04:05:18;;;;;;;16.23;8.70;;;;;;;-0.23;69.09;97819.47;1754745;82;21071;-80
2022/04/04 04:07:45;;;;;;;17.12;9.18;;;;;;;-0.25;69.13;97822.91;1755058;82;21145;-80
2022/04/04 04:10:12;;;;;;;14.68;9.53;;;;;;;-0.25;69.24;97827.67;1755008;82;21009;-79
2022/04/04 04:12:41;;;;;;;12.10;7.97;;;;;;;-0.24;69.16;97827.25;1728207;82;21044;-80
2022/04/04 04:15:15;;;;;;;19.00;9.88;;;;;;;-0.27;69.02;97832.00;1672973;86;21048;-80
2022/04/04 04:17:42;;;;;;;11.12;7.65;;;;;;;-0.28;69.21;97827.21;1675517;86;21405;-80
2022/04/04 04:20:31;;;;;;;16.30;8.48;;;;;;;-0.23;68.97;97835.51;1673074;86;21100;-79
2022/04/04 04:23:06;;;;;;;17.55;8.73;;;;;;;-0.27;68.72;97838.09;1674841;86;21912;-80
2022/04/04 04:25:35;;;;;;;13.28;8.48;;;;;;;-0.30;68.82;97840.66;1673157;86;21084;-80
2022/04/04 04:28:05;;;;;;;12.80;8.28;;;;;;;-0.32;68.69;97830.66;1675419;84;21519;-80
2022/04/04 04:30:32;;;;;;;17.57;8.70;;;;;;;-0.29;68.90;97833.73;1724789;83;21001;-79
2022/04/04 04:33:00;;;;;;;15.00;8.78;;;;;;;-0.24;69.03;97827.25;1724299;83;21441;-79
2022/04/04 04:35:26;;;;;;;15.75;7.70;;;;;;;-0.21;68.93;97839.88;1724244;83;21444;-80
2022/04/04 04:37:54;;;;;;;12.73;8.65;;;;;;;-0.19;68.83;97832.97;1724419;83;21063;-80
2022/04/04 04:40:21;;;;;;;15.20;8.15;;;;;;;-0.16;68.36;97832.98;1724808;83;21125;-80
2022/04/04 04:42:51;;;;;;;14.58;8.65;;;;;;;-0.16;68.58;97835.59;1724217;83;21004;-79
2022/04/04 04:45:18;;;;;;;13.88;9.20;;;;;;;-0.15;68.49;97832.16;1724374;83;21052;-79
2022/04/04 04:47:45;;;;;;;15.30;8.50;;;;;;;-0.17;68.25;97831.24;1672703;85;21093;-79
2022/04/04 04:50:14;;;;;;;12.58;8.38;;;;;;;-0.16;68.47;97834.73;1675226;86;21576;-79
2022/04/04 04:52:42;;;;;;;15.28;8.25;;;;;;;-0.12;68.36;97837.83;1724108;83;21544;-79
2022/04/04 04:55:10;;;;;;;15.65;8.75;;;;;;;-0.09;68.26;97837.84;1724418;83;21000;-79
2022/04/04 04:57:38;;;;;;;16.67;8.98;;;;;;;-0.06;68.10;97836.58;1724228;83;21512;-79
2022/04/04 05:00:08;;;;;;;14.13;8.90;;;;;;;-0.01;68.22;97832.28;1724426;83;21398;-79
2022/04/04 05:02:36;;;;;;;14.15;8.73;;;;;;;0.08;68.19;97831.49;1672711;85;21032;-79
2022/04/04 05:05:07;;;;;;;14.55;8.15;;;;;;;0.10;67.99;97831.09;1675064;86;21027;-80
2022/04/04 05:07:34;;;;;;;13.25;8.08;;;;;;;0.17;68.04;97839.81;1672657;86;21048;-80
2022/04/04 05:10:01;;;;;;;13.88;8.63;;;;;;;0.20;67.13;97839.00;1675239;86;21056;-81
2022/04/04 05:12:28;;;;;;;13.83;7.83;;;;;;;0.22;67.41;97845.09;1672786;86;21060;-80
2022/04/04 05:14:55;;;;;;;13.13;7.80;;;;;;;0.24;67.25;97845.97;1675787;85;21432;-80
2022/04/04 05:17:22;;;;;;;11.97;7.78;;;;;;;0.26;66.76;97849.03;1672675;85;21016;-80
2022/04/04 05:19:48;;;;;;;13.28;8.25;;;;;;;0.26;66.80;97850.78;1675858;86;21052;-80
2022/04/04 05:22:15;;;;;;;13.48;8.55;;;;;;;0.30;66.74;97841.25;1724907;83;21067;-80
2022/04/04 05:24:41;;;;;;;13.78;8.28;;;;;;;0.31;66.52;97841.69;1725488;83;21056;-80
2022/04/04 05:27:09;;;;;;;13.98;8.50;;;;;;;0.31;66.48;97849.09;1725465;83;20965;-80
2022/04/04 05:29:36;;;;;;;16.25;9.53;;;;;;;0.34;66.43;97845.19;1730295;83;21035;-80
2022/04/04 05:32:04;;;;;;;15.78;9.70;;;;;;;0.41;66.60;97849.17;1733795;83;21452;-80
2022/04/04 05:34:30;;;;;;;17.77;9.95;;;;;;;0.46;66.62;97841.81;1733991;82;20964;-80
2022/04/04 05:36:58;;;;;;;16.27;9.25;;;;;;;0.52;66.47;97848.41;1733578;83;21516;-80
2022/04/04 05:39:24;;;;;;;15.70;9.70;;;;;;;0.56;66.43;97841.48;1734081;83;20944;-80
2022/04/04 05:41:52;;;;;;;17.20;9.30;;;;;;;0.61;66.40;97842.38;1733645;83;20992;-80
2022/04/04 05:44:18;;;;;;;16.32;9.53;;;;;;;0.68;66.52;97842.00;1733874;83;20968;-80
2022/04/04 05:46:46;;;;;;;14.53;9.83;;;;;;;0.77;66.51;97835.97;1733949;83;20996;-80
2022/04/04 05:49:13;;;;;;;17.05;9.68;;;;;;;0.85;66.08;97834.30;1733863;83;21389;-79
2022/04/04 05:51:40;;;;;;;14.20;8.80;;;;;;;0.89;66.16;97825.64;1733917;83;20992;-79
2022/04/04 05:54:06;;;;;;;18.60;10.35;;;;;;;0.99;66.06;97828.30;1733982;82;21134;-79
2022/04/04 05:56:35;;;;;;;18.92;10.72;;;;;;;1.05;66.20;97830.48;1733561;83;21008;-80
2022/04/04 05:59:01;;;;;;;20.88;11.57;;;;;;;1.15;66.19;97830.13;1733909;83;21020;-80
2022/04/04 06:01:28;;;;;;;20.02;11.00;;;;;;;1.24;65.83;97829.75;1733637;83;21453;-80
2022/04/04 06:03:57;;;;;;;21.07;12.18;;;;;;;1.31;65.78;97831.50;1733605;83;20977;-80
2022/04/04 06:06:23;;;;;;;16.82;11.00;;;;;;;1.35;65.43;97828.05;1733890;83;20983;-80
2022/04/04 06:08:50;;;;;;;17.20;11.15;;;;;;;1.40;65.14;97832.86;1733951;83;21480;-80
2022/04/04 06:11:16;;;;;;;16.90;10.50;;;;;;;1.45;65.21;97827.64;1733923;83;21080;-80
2022/04/04 06:13:44;;;;;;;20.48;11.80;;;;;;;1.49;64.84;97825.48;1733871;83;21000;-80
2022/04/04 06:16:11;;;;;;;17.62;11.25;;;;;;;1.56;65.06;97831.19;1733679;83;21012;-80
2022/04/04 06:18:37;;;;;;;18.80;10.85;;;;;;;1.66;64.76;97827.31;1733951;83;20991;-80
2022/04/04 06:21:04;;;;;;;19.60;11.75;;;;;;;1.70;64.81;97828.62;1733713;83;21036;-80
2022/04/04 06:23:33;;;;;;;18.92;12.40;;;;;;;1.75;63.69;97825.16;1733783;83;21423;-80
2022/04/04 06:26:01;;;;;;;19.80;12.30;;;;;;;1.78;64.24;97829.95;1733766;83;21008;-80
2022/04/04 06:28:31;;;;;;;17.20;11.78;;;;;;;1.84;64.29;97829.10;1733767;82;21011;-79
2022/04/04 06:30:56;;;;;;;19.02;10.72;;;;;;;1.90;64.37;97829.11;1733522;83;21103;-79
2022/04/04 06:33:23;;;;;;;14.85;10.30;;;;;;;1.99;64.05;97833.48;1733871;83;21004;-79
2022/04/04 06:35:50;;;;;;;13.50;10.38;;;;;;;2.07;63.86;97829.56;1733733;83;21043;-79
2022/04/04 06:38:18;;;;;;;18.25;10.25;;;;;;;2.11;63.09;97831.33;1733770;83;21016;-80
2022/04/04 06:40:46;;;;;;;15.05;10.00;;;;;;;2.11;62.09;97830.02;1733860;83;21024;-80
2022/04/04 06:43:12;;;;;;;17.98;9.83;;;;;;;2.13;62.53;97830.02;1733777;83;21425;-80
2022/04/04 06:45:42;;;;;;;17.23;9.93;;;;;;;2.15;62.52;97829.61;1733830;83;20995;-79
2022/04/04 06:48:09;;;;;;;14.75;9.60;;;;;;;2.20;61.67;97833.10;1733767;83;21039;-80
2022/04/04 06:50:36;;;;;;;17.67;10.45;;;;;;;2.20;62.12;97833.95;1733934;83;21035;-80
2022/04/04 06:53:04;;;;;;;13.90;9.93;;;;;;;2.26;62.14;97837.45;1733654;83;21067;-80
2022/04/04 06:55:33;;;;;;;12.55;9.38;;;;;;;2.30;62.06;97836.16;1733824;83;21035;-79
2022/04/04 06:58:01;;;;;;;16.02;9.78;;;;;;;2.34;61.50;97837.03;1733781;83;20975;-79
2022/04/04 07:00:27;;;;;;;16.10;10.53;;;;;;;2.35;61.76;97838.34;1733632;83;21028;-80
2022/04/04 07:02:55;;;;;;;17.82;11.70;;;;;;;2.41;61.76;97837.45;1733774;83;20984;-80
2022/04/04 07:05:22;;;;;;;15.03;10.55;;;;;;;2.42;61.30;97840.53;1733768;83;21059;-79
2022/04/04 07:07:49;;;;;;;18.85;10.75;;;;;;;2.48;62.03;97844.87;1733837;83;21452;-79
2022/04/04 07:10:16;;;;;;;16.37;10.90;;;;;;;2.52;61.92;97839.23;1733800;83;21011;-79
2022/04/04 07:12:43;;;;;;;15.32;10.58;;;;;;;2.58;61.62;97847.92;1733687;83;20964;-79
2022/04/04 07:15:11;;;;;;;19.67;11.73;;;;;;;2.60;61.53;97838.35;1733947;83;20960;-79
2022/04/04 07:17:43;;;;;;;16.40;10.48;;;;;;;2.62;61.65;97851.44;1733781;83;21032;-80
2022/04/04 07:20:11;;;;;;;16.15;10.90;;;;;;;2.64;60.47;97859.73;1733786;83;21019;-79
2022/04/04 07:22:41;;;;;;;16.48;10.18;;;;;;;2.63;60.67;97848.80;1733891;83;21020;-79
2022/04/04 07:25:09;;;;;;;17.23;10.45;;;;;;;2.64;60.53;97845.33;1733916;83;21027;-79
2022/04/04 07:27:42;;;;;;;14.95;10.38;;;;;;;2.68;60.44;97847.51;1733677;83;21039;-79
2022/04/04 07:30:11;;;;;;;16.62;10.90;;;;;;;2.66;60.03;97854.92;1729039;82;21032;-79
2022/04/04 07:32:40;;;;;;;15.65;9.28;;;;;;;2.71;60.57;97851.86;1726053;83;21095;-79
2022/04/04 07:35:11;;;;;;;17.75;11.53;;;;;;;2.76;60.54;97847.50;1725829;83;21480;-79
2022/04/04 07:37:39;;;;;;;14.85;10.23;;;;;;;2.86;60.15;97849.69;1726080;83;21032;-79
2022/04/04 07:40:10;;;;;;;14.73;9.70;;;;;;;2.93;60.16;97855.34;1726051;83;21051;-79
2022/04/04 07:42:38;;;;;;;15.68;10.53;;;;;;;3.01;59.92;97854.02;1703720;84;21067;-80
2022/04/04 07:45:08;;;;;;;16.00;9.73;;;;;;;3.11;60.44;97856.20;1674108;85;21054;-80
2022/04/04 07:47:36;;;;;;;16.00;10.28;;;;;;;3.22;60.50;97856.16;1703885;84;21059;-80
2022/04/04 07:50:04;;;;;;;16.77;9.95;;;;;;;3.30;60.46;97859.21;1674245;86;21452;-79
2022/04/04 07:52:31;;;;;;;17.85;10.18;;;;;;;3.40;60.26;97852.61;1703942;84;21583;-79
2022/04/04 07:54:57;;;;;;;15.35;10.28;;;;;;;3.38;59.46;97850.45;1674168;85;21050;-79
2022/04/04 07:57:24;;;;;;;18.00;11.05;;;;;;;3.40;59.86;97859.16;1703753;84;21020;-79
2022/04/04 07:59:51;;;;;;;15.53;10.25;;;;;;;3.44;60.06;97854.34;1674263;85;21054;-80
2022/04/04 08:02:19;;;;;;;15.80;9.68;;;;;;;3.51;60.09;97852.16;1703642;84;21040;-80
2022/04/04 08:04:45;;;;;;;14.07;9.63;;;;;;;3.53;59.40;97845.15;1704011;84;21069;-79
2022/04/04 08:07:13;;;;;;;14.35;10.00;;;;;;;3.58;59.71;97846.89;1725812;83;21453;-79
2022/04/04 08:09:39;;;;;;;14.90;9.73;;;;;;;3.63;59.67;97852.55;1725864;82;20969;-79
2022/04/04 08:12:07;;;;;;;13.50;9.15;;;;;;;3.63;58.76;97855.17;1726003;83;20999;-79
2022/04/04 08:14:36;;;;;;;12.35;8.90;;;;;;;3.68;59.56;97851.20;1726048;83;20964;-79
2022/04/04 08:17:03;;;;;;;12.82;8.65;;;;;;;3.77;59.80;97852.91;1725940;83;21063;-79
2022/04/04 08:19:30;;;;;;;10.70;8.08;;;;;;;3.87;59.75;97856.38;1725640;83;20984;-78
2022/04/04 08:21:57;;;;;;;14.07;8.25;;;;;;;3.93;59.00;97846.73;1726028;83;21046;-78
2022/04/04 08:24:24;;;;;;;11.68;8.50;;;;;;;4.00;58.73;97850.63;1725926;83;21141;-78
2022/04/04 08:26:51;;;;;;;11.85;8.68;;;;;;;4.04;59.02;97846.68;1725975;83;21027;-78
2022/04/04 08:29:18;;;;;;;12.10;8.15;;;;;;;4.06;58.31;97834.84;1725924;82;20976;-78
2022/04/04 08:31:45;;;;;;;14.43;8.78;;;;;;;4.12;58.81;97837.88;1725214;83;21018;-78
2022/04/04 08:34:12;;;;;;;14.95;9.68;;;;;;;4.25;59.02;97839.55;1725304;83;21165;-78
2022/04/04 08:36:40;;;;;;;16.87;9.18;;;;;;;4.40;59.52;97837.25;1725248;83;21000;-79
2022/04/04 08:39:07;;;;;;;14.40;9.60;;;;;;;4.56;59.36;97841.06;1725121;83;21012;-79
2022/04/04 08:41:37;;;;;;;16.15;8.65;;;;;;;4.70;58.97;97838.34;1725340;83;21000;-79
2022/04/04 08:44:05;;;;;;;13.32;9.28;;;;;;;4.78;58.55;97834.34;1673333;86;21025;-79
2022/04/04 08:46:35;;;;;;;14.23;9.38;;;;;;;4.82;57.57;97840.00;1675805;86;21072;-79
2022/04/04 08:49:05;;;;;;;11.20;8.13;;;;;;;4.82;57.32;97840.00;1673587;86;21516;-79
2022/04/04 08:51:33;;;;;;;11.20;8.73;;;;;;;4.82;57.99;97836.91;1676002;86;21028;-79
2022/04/04 08:54:00;;;;;;;12.47;9.30;;;;;;;4.87;57.14;97839.51;1673526;86;21127;-80
2022/04/04 08:56:28;;;;;;;12.30;8.45;;;;;;;4.80;57.10;97836.06;1676010;86;21123;-80
2022/04/04 08:58:56;;;;;;;14.28;8.95;;;;;;;4.74;56.99;97831.73;1673430;86;21029;-80
2022/04/04 09:01:25;;;;;;;12.37;9.15;;;;;;;4.94;58.14;97821.48;1676110;86;21047;-80
2022/04/04 09:04:02;;;;;;;14.78;9.75;;;;;;;5.10;57.07;97826.58;1673456;86;21044;-79
2022/04/04 09:06:29;;;;;;;15.13;9.38;;;;;;;5.25;57.05;97829.50;1673928;86;21047;-80
2022/04/04 09:08:56;;;;;;;13.88;8.90;;;;;;;5.35;56.75;97824.56;1673576;86;21124;-79
2022/04/04 09:11:24;;;;;;;11.57;8.73;;;;;;;5.58;56.71;97819.92;1675955;86;21052;-80
2022/04/04 09:14:08;;;;;;;15.50;8.83;;;;;;;5.71;56.75;97817.58;1725314;83;21051;-80
2022/04/04 09:16:36;;;;;;;12.13;9.15;;;;;;;5.90;56.66;97808.98;1673691;85;21032;-80
2022/04/04 09:19:03;;;;;;;12.93;9.40;;;;;;;6.05;55.26;97807.95;1675850;86;21004;-80
2022/04/04 09:21:33;;;;;;;13.05;9.03;;;;;;;6.09;54.60;97806.13;1673861;86;20989;-80
2022/04/04 09:24:07;;;;;;;16.70;9.23;;;;;;;6.00;53.45;97803.16;1675984;86;21060;-80
2022/04/04 09:26:40;;;;;;;11.22;8.45;;;;;;;6.00;54.45;97803.59;1673337;86;21074;-80
2022/04/04 09:29:21;;;;;;;12.37;8.68;;;;;;;6.03;54.27;97800.97;1652936;86;21137;-80
2022/04/04 09:32:05;;;;;;;15.03;9.38;;;;;;;5.98;54.00;97801.45;1681070;83;21088;-79
2022/04/04 09:35:00;;;;;;;14.70;9.88;;;;;;;5.93;53.27;97794.48;1685379;85;21139;-79
2022/04/04 09:37:32;;;;;;;18.42;8.98;;;;;;;5.94;54.34;97793.59;1674581;85;20970;-79
2022/04/04 09:40:08;;;;;;;12.10;9.43;;;;;;;6.00;53.71;97790.44;1677321;86;20989;-79
2022/04/04 09:42:36;;;;;;;13.95;9.48;;;;;;;6.02;54.35;97790.84;1716159;84;21476;-79
2022/04/04 09:45:10;;;;;;;12.18;8.53;;;;;;;6.07;54.19;97794.77;1687349;85;21017;-79
2022/04/04 09:47:54;;;;;;;10.80;7.92;;;;;;;6.07;53.40;97786.88;1686201;85;21068;-79
2022/04/04 09:50:35;;;;;;;15.23;8.63;;;;;;;6.05;54.23;97776.37;1684824;85;21045;-79
2022/04/04 09:53:05;;;;;;;10.58;8.43;;;;;;;6.10;53.36;97775.44;1687287;85;21045;-79
2022/04/04 09:55:41;;;;;;;12.73;8.20;;;;;;;6.13;53.77;97784.58;1687228;85;21486;-79
2022/04/04 09:58:12;;;;;;;12.15;8.23;;;;;;;5.73;51.02;97774.17;1687235;85;21029;-79
2022/04/04 10:00:40;;;;;;;12.33;8.80;;;;;;;5.76;53.02;97772.36;1687308;85;21044;-79
2022/04/04 10:03:12;;;;;;;12.03;8.00;;;;;;;5.71;50.71;97768.93;1687180;85;21049;-79
2022/04/04 10:05:40;;;;;;;13.83;8.20;;;;;;;5.58;50.20;97776.11;1686844;85;21020;-79
2022/04/04 10:08:10;;;;;;;12.82;9.20;;;;;;;5.51;51.44;97780.58;1686632;85;21279;-78
2022/04/04 10:10:37;;;;;;;33.00;20.57;;;;;;;5.48;52.32;97776.66;1661852;85;21065;-78
2022/04/04 10:13:05;;;;;;;12.37;8.33;;;;;;;5.59;52.99;97783.53;1711369;84;21027;-79
2022/04/04 10:15:36;;;;;;;14.28;8.85;;;;;;;5.72;52.92;97773.76;1711163;84;21440;-79
2022/04/04 10:18:04;;;;;;;13.25;8.70;;;;;;;5.93;52.82;97776.08;1711262;84;21004;-78
2022/04/04 10:20:31;;;;;;;11.38;8.45;;;;;;;6.01;52.53;97769.81;1711164;84;21039;-79
2022/04/04 10:22:59;;;;;;;11.28;8.40;;;;;;;6.09;52.48;97774.56;1711181;84;21416;-80
2022/04/04 10:25:31;;;;;;;10.72;8.03;;;;;;;6.17;51.42;97774.01;1711304;84;21491;-80
2022/04/04 10:27:59;;;;;;;11.20;8.40;;;;;;;6.21;51.46;97776.13;1711280;84;20984;-80
2022/04/04 10:30:44;;;;;;;11.60;8.50;;;;;;;6.36;52.07;97773.72;1715413;81;21425;-79
2022/04/04 10:33:21;;;;;;;12.03;8.35;;;;;;;6.04;49.27;97768.50;1702458;84;21099;-80
2022/04/04 10:36:13;;;;;;;12.28;8.33;;;;;;;5.97;50.97;97774.27;1703220;84;21042;-80
2022/04/04 10:38:54;;;;;;;11.80;8.33;;;;;;;5.74;49.28;97769.33;1704009;84;21417;-80
2022/04/04 10:41:27;;;;;;;11.38;8.45;;;;;;;5.46;49.57;97764.00;1704122;84;21037;-80
2022/04/04 10:43:56;;;;;;;13.32;8.63;;;;;;;5.22;50.12;97763.41;1725033;83;21485;-80
2022/04/04 10:46:25;;;;;;;14.05;7.92;;;;;;;5.17;50.75;97757.34;1703856;84;21001;-80
2022/04/04 10:49:04;;;;;;;12.03;8.13;;;;;;;5.04;50.08;97759.23;1704144;84;21061;-80
2022/04/04 10:51:36;;;;;;;11.78;9.03;;;;;;;5.10;50.88;97751.71;1725894;83;21456;-80
2022/04/04 10:54:10;;;;;;;14.20;9.75;;;;;;;5.12;51.08;97753.89;1725838;83;21012;-79
2022/04/04 10:56:44;;;;;;;13.65;8.90;;;;;;;5.05;51.08;97751.78;1726224;83;21075;-79
2022/04/04 10:59:24;;;;;;;13.60;9.08;;;;;;;5.05;50.72;97753.09;1726080;83;21036;-79
2022/04/04 11:01:58;;;;;;;11.88;7.92;;;;;;;5.06;50.99;97748.26;1726094;83;21480;-79
2022/04/04 11:04:36;;;;;;;13.18;8.55;;;;;;;4.98;51.58;97748.34;1726155;83;20996;-79
2022/04/04 11:10:09;;;;;;;14.18;8.90;;;;;;;5.08;52.18;97750.44;1703618;84;21168;-79
2022/04/04 11:13:12;;;;;;;15.83;9.15;;;;;;;5.07;51.85;97749.98;1703714;84;21069;-79
2022/04/04 11:15:56;;;;;;;13.53;8.60;;;;;;;5.12;51.81;97749.48;1724812;83;21449;-79
2022/04/04 11:18:32;;;;;;;12.43;8.55;;;;;;;5.10;51.94;97755.22;1725905;83;21059;-80
2022/04/04 11:20:59;;;;;;;11.93;8.88;;;;;;;5.10;52.13;97752.59;1722757;83;21000;-80
2022/04/04 11:23:37;;;;;;;12.68;8.50;;;;;;;5.07;51.13;97752.61;1726162;83;21008;-80
2022/04/04 11:26:04;;;;;;;13.72;8.13;;;;;;;5.11;52.37;97744.28;1725954;83;21028;-80
2022/04/04 11:28:35;;;;;;;12.13;8.55;;;;;;;5.16;51.87;97758.23;1725867;83;21039;-79
2022/04/04 11:31:08;;;;;;;10.58;7.78;;;;;;;5.03;51.75;97740.43;1725173;82;21016;-79
2022/04/04 11:33:52;;;;;;;11.22;7.85;;;;;;;5.00;51.98;97737.40;1725061;83;21016;-79
2022/04/04 11:36:28;;;;;;;11.43;8.70;;;;;;;5.05;52.12;97733.39;1725160;83;21053;-79
2022/04/04 11:38:59;;;;;;;12.82;8.40;;;;;;;5.05;51.94;97741.27;1724443;83;21049;-79
2022/04/04 11:41:24;;;;;;;14.45;8.50;;;;;;;5.23;52.32;97740.17;1724627;83;21469;-79
2022/04/04 11:43:52;;;;;;;12.10;8.33;;;;;;;5.36;50.67;97740.89;1725276;83;20968;-79